NWK163 YBCS-YPGV
Flight info
| Callsign | NWK163 |
|---|---|
| Flight time | 1h 39m |
| Altitude | 34000 |
| Route | CS J151 GV |
| Aircraft | A319/M-SDE3FGHIRWY/LB1 |
Departure
| Time | 2026-04-28 06:31 |
|---|---|
| Airport | Cairns International Airport (YBCS) |
Arrival
| Time | 2026-04-28 08:10 |
|---|---|
| Airport | Gove Airport (YPGV) |
| Time | Latitude | Longitude | Altitude | Speed | Heading |
|---|---|---|---|---|---|
| 2026-04-28 06:14 | -16.87820 | 145.75206 | 16 ft | 0 kts | 341° |
| 2026-04-28 06:18 | -16.87734 | 145.75237 | 15 ft | 7 kts | 75° |
| 2026-04-28 06:18 | -16.87724 | 145.75265 | 15 ft | 0 kts | 66° |
| 2026-04-28 06:21 | -16.87729 | 145.75253 | 15 ft | 4 kts | 66° |
| 2026-04-28 06:22 | -16.87738 | 145.75227 | 17 ft | 4 kts | 84° |
| 2026-04-28 06:22 | -16.87740 | 145.75206 | 15 ft | 4 kts | 58° |
| 2026-04-28 06:22 | -16.87758 | 145.75187 | 17 ft | 4 kts | 31° |
| 2026-04-28 06:22 | -16.87781 | 145.75185 | 16 ft | 4 kts | 324° |
| 2026-04-28 06:23 | -16.87800 | 145.75198 | 15 ft | 3 kts | 336° |
| 2026-04-28 06:23 | -16.87826 | 145.75208 | 18 ft | 4 kts | 340° |
| 2026-04-28 06:23 | -16.87836 | 145.75212 | 17 ft | 0 kts | 338° |
| 2026-04-28 06:26 | -16.87783 | 145.75188 | 16 ft | 12 kts | 336° |
| 2026-04-28 06:27 | -16.87702 | 145.75150 | 18 ft | 14 kts | 336° |
| 2026-04-28 06:27 | -16.87605 | 145.75119 | 15 ft | 17 kts | 348° |
| 2026-04-28 06:27 | -16.87496 | 145.75071 | 17 ft | 17 kts | 336° |
| 2026-04-28 06:27 | -16.87391 | 145.75023 | 18 ft | 16 kts | 337° |
| 2026-04-28 06:28 | -16.87312 | 145.74945 | 17 ft | 18 kts | 290° |
| 2026-04-28 06:28 | -16.87233 | 145.74847 | 16 ft | 19 kts | 337° |
| 2026-04-28 06:28 | -16.87110 | 145.74792 | 16 ft | 20 kts | 336° |
| 2026-04-28 06:28 | -16.87059 | 145.74681 | 13 ft | 21 kts | 249° |
| 2026-04-28 06:29 | -16.87031 | 145.74559 | 12 ft | 20 kts | 338° |
| 2026-04-28 06:29 | -16.86904 | 145.74501 | 14 ft | 20 kts | 336° |
| 2026-04-28 06:29 | -16.86777 | 145.74444 | 14 ft | 20 kts | 337° |
| 2026-04-28 06:29 | -16.86657 | 145.74385 | 18 ft | 18 kts | 321° |
| 2026-04-28 06:30 | -16.86581 | 145.74391 | 19 ft | 15 kts | 91° |
| 2026-04-28 06:30 | -16.86655 | 145.74391 | 21 ft | 10 kts | 185° |
| 2026-04-28 06:30 | -16.86725 | 145.74423 | 16 ft | 22 kts | 156° |
| 2026-04-28 06:30 | -16.87040 | 145.74565 | 12 ft | 77 kts | 157° |
| 2026-04-28 06:31 | -16.87689 | 145.74857 | 20 ft | 126 kts | 156° |
| 2026-04-28 06:31 | -16.88639 | 145.75277 | 66 ft | 165 kts | 159° |
| 2026-04-28 06:31 | -16.89614 | 145.75833 | 780 ft | 153 kts | 138° |
| 2026-04-28 06:31 | -16.90117 | 145.76727 | 1540 ft | 140 kts | 107° |
| 2026-04-28 06:32 | -16.89979 | 145.77741 | 2043 ft | 152 kts | 69° |
| 2026-04-28 06:32 | -16.89163 | 145.78540 | 2345 ft | 178 kts | 29° |
| 2026-04-28 06:32 | -16.87866 | 145.78710 | 2635 ft | 201 kts | 351° |
| 2026-04-28 06:32 | -16.86484 | 145.78289 | 3026 ft | 213 kts | 340° |
| 2026-04-28 06:33 | -16.85311 | 145.77313 | 3353 ft | 228 kts | 298° |
| 2026-04-28 06:33 | -16.84707 | 145.75719 | 3615 ft | 248 kts | 282° |
| 2026-04-28 06:33 | -16.84257 | 145.73889 | 3973 ft | 272 kts | 281° |
| 2026-04-28 06:33 | -16.83752 | 145.71920 | 4615 ft | 286 kts | 282° |
| 2026-04-28 06:34 | -16.83062 | 145.69943 | 5445 ft | 294 kts | 292° |
| 2026-04-28 06:34 | -16.82173 | 145.68012 | 6363 ft | 297 kts | 296° |
| 2026-04-28 06:34 | -16.81216 | 145.66137 | 7248 ft | 298 kts | 297° |
| 2026-04-28 06:34 | -16.80220 | 145.64228 | 8098 ft | 300 kts | 298° |
| 2026-04-28 06:35 | -16.79230 | 145.62305 | 8991 ft | 301 kts | 297° |
| 2026-04-28 06:35 | -16.78256 | 145.60367 | 9882 ft | 302 kts | 297° |
| 2026-04-28 06:35 | -16.77282 | 145.58396 | 10420 ft | 315 kts | 296° |
| 2026-04-28 06:35 | -16.76255 | 145.56288 | 10667 ft | 335 kts | 296° |
| 2026-04-28 06:36 | -16.75189 | 145.54086 | 11248 ft | 341 kts | 296° |
| 2026-04-28 06:36 | -16.74123 | 145.51873 | 11949 ft | 343 kts | 296° |
| 2026-04-28 06:36 | -16.73046 | 145.49641 | 12669 ft | 344 kts | 296° |
| 2026-04-28 06:36 | -16.71970 | 145.47413 | 13389 ft | 345 kts | 295° |
| 2026-04-28 06:37 | -16.70888 | 145.45178 | 14053 ft | 346 kts | 295° |
| 2026-04-28 06:37 | -16.69794 | 145.42921 | 14599 ft | 349 kts | 295° |
| 2026-04-28 06:37 | -16.68690 | 145.40650 | 15138 ft | 353 kts | 295° |
| 2026-04-28 06:37 | -16.67577 | 145.38358 | 15689 ft | 356 kts | 295° |
| 2026-04-28 06:38 | -16.66457 | 145.36045 | 16240 ft | 359 kts | 295° |
| 2026-04-28 06:38 | -16.65331 | 145.33714 | 16778 ft | 362 kts | 295° |
| 2026-04-28 06:38 | -16.64193 | 145.31360 | 17308 ft | 365 kts | 295° |
| 2026-04-28 06:38 | -16.63062 | 145.29023 | 17809 ft | 368 kts | 294° |
| 2026-04-28 06:39 | -16.61903 | 145.26632 | 18333 ft | 371 kts | 294° |
| 2026-04-28 06:39 | -16.60733 | 145.24222 | 18773 ft | 374 kts | 295° |
| 2026-04-28 06:39 | -16.59550 | 145.21792 | 19235 ft | 377 kts | 294° |
| 2026-04-28 06:39 | -16.58360 | 145.19346 | 19708 ft | 380 kts | 294° |
| 2026-04-28 06:40 | -16.57159 | 145.16878 | 20190 ft | 382 kts | 294° |
| 2026-04-28 06:40 | -16.55952 | 145.14399 | 20668 ft | 385 kts | 294° |
| 2026-04-28 06:40 | -16.54736 | 145.11904 | 21136 ft | 387 kts | 294° |
| 2026-04-28 06:40 | -16.53513 | 145.09394 | 21610 ft | 390 kts | 294° |
| 2026-04-28 06:41 | -16.52283 | 145.06865 | 22068 ft | 393 kts | 294° |
| 2026-04-28 06:41 | -16.51047 | 145.04318 | 22521 ft | 395 kts | 294° |
| 2026-04-28 06:41 | -16.50223 | 145.02627 | 22823 ft | 397 kts | 294° |
| 2026-04-28 06:41 | -16.48967 | 145.00052 | 23269 ft | 399 kts | 294° |
| 2026-04-28 06:42 | -16.47294 | 144.96629 | 23815 ft | 402 kts | 294° |
| 2026-04-28 06:42 | -16.46028 | 144.94030 | 24197 ft | 403 kts | 293° |
| 2026-04-28 06:42 | -16.44758 | 144.91423 | 24586 ft | 404 kts | 293° |
| 2026-04-28 06:42 | -16.43898 | 144.89657 | 24865 ft | 405 kts | 293° |
| 2026-04-28 06:43 | -16.42623 | 144.87040 | 25259 ft | 406 kts | 293° |
| 2026-04-28 06:43 | -16.41345 | 144.84419 | 25656 ft | 406 kts | 292° |
| 2026-04-28 06:43 | -16.40062 | 144.81793 | 26032 ft | 407 kts | 292° |
| 2026-04-28 06:43 | -16.38793 | 144.79196 | 26413 ft | 408 kts | 292° |
| 2026-04-28 06:44 | -16.37505 | 144.76559 | 26792 ft | 409 kts | 292° |
| 2026-04-28 06:44 | -16.36213 | 144.73915 | 27163 ft | 410 kts | 292° |
| 2026-04-28 06:44 | -16.34915 | 144.71264 | 27535 ft | 411 kts | 292° |
| 2026-04-28 06:44 | -16.33615 | 144.68607 | 27896 ft | 412 kts | 292° |
| 2026-04-28 06:45 | -16.32309 | 144.65943 | 28255 ft | 414 kts | 292° |
| 2026-04-28 06:45 | -16.30998 | 144.63271 | 28605 ft | 415 kts | 292° |
| 2026-04-28 06:45 | -16.29685 | 144.60596 | 28932 ft | 417 kts | 292° |
| 2026-04-28 06:45 | -16.28363 | 144.57902 | 29267 ft | 418 kts | 292° |
| 2026-04-28 06:46 | -16.27043 | 144.55210 | 29602 ft | 419 kts | 291° |
| 2026-04-28 06:46 | -16.25713 | 144.52490 | 29941 ft | 420 kts | 291° |
| 2026-04-28 06:46 | -16.24383 | 144.49777 | 30234 ft | 422 kts | 291° |
| 2026-04-28 06:46 | -16.23048 | 144.47056 | 30506 ft | 423 kts | 291° |
| 2026-04-28 06:47 | -16.21704 | 144.44324 | 30770 ft | 424 kts | 291° |
| 2026-04-28 06:47 | -16.20363 | 144.41597 | 31032 ft | 425 kts | 291° |
| 2026-04-28 06:47 | -16.19034 | 144.38889 | 31288 ft | 426 kts | 291° |
| 2026-04-28 06:47 | -16.17685 | 144.36138 | 31568 ft | 427 kts | 291° |
| 2026-04-28 06:48 | -16.16334 | 144.33396 | 31934 ft | 425 kts | 291° |
| 2026-04-28 06:48 | -16.14986 | 144.30664 | 32311 ft | 424 kts | 291° |
| 2026-04-28 06:48 | -16.13644 | 144.27944 | 32695 ft | 422 kts | 291° |
| 2026-04-28 06:48 | -16.12311 | 144.25231 | 33070 ft | 421 kts | 291° |
| 2026-04-28 06:49 | -16.10983 | 144.22527 | 33471 ft | 419 kts | 291° |
| 2026-04-28 06:49 | -16.09657 | 144.19834 | 33839 ft | 418 kts | 291° |
| 2026-04-28 06:49 | -16.08335 | 144.17151 | 33928 ft | 413 kts | 291° |
| 2026-04-28 06:50 | -16.05732 | 144.11898 | 33941 ft | 406 kts | 291° |
| 2026-04-28 06:50 | -16.03154 | 144.06674 | 33939 ft | 405 kts | 291° |
| 2026-04-28 06:51 | -16.00580 | 144.01457 | 33935 ft | 406 kts | 291° |
| 2026-04-28 06:51 | -15.98021 | 143.96277 | 33939 ft | 406 kts | 291° |
| 2026-04-28 06:52 | -15.95439 | 143.91053 | 33928 ft | 406 kts | 291° |
| 2026-04-28 06:52 | -15.92854 | 143.85828 | 33922 ft | 407 kts | 291° |
| 2026-04-28 06:53 | -15.90259 | 143.80600 | 33918 ft | 407 kts | 291° |
| 2026-04-28 06:53 | -15.87668 | 143.75368 | 33915 ft | 407 kts | 290° |
| 2026-04-28 06:54 | -15.85076 | 143.70127 | 33914 ft | 408 kts | 290° |
| 2026-04-28 06:54 | -15.82466 | 143.64894 | 33912 ft | 408 kts | 290° |
| 2026-04-28 06:55 | -15.79854 | 143.59661 | 33911 ft | 409 kts | 290° |
| 2026-04-28 06:55 | -15.77243 | 143.54414 | 33913 ft | 409 kts | 290° |
| 2026-04-28 06:56 | -15.74663 | 143.49198 | 33906 ft | 409 kts | 290° |
| 2026-04-28 06:56 | -15.72050 | 143.43950 | 33911 ft | 409 kts | 290° |
| 2026-04-28 06:57 | -15.69431 | 143.38698 | 33906 ft | 410 kts | 290° |
| 2026-04-28 06:57 | -15.66800 | 143.33445 | 33912 ft | 410 kts | 290° |
| 2026-04-28 06:58 | -15.64166 | 143.28185 | 33906 ft | 411 kts | 290° |
| 2026-04-28 06:58 | -15.61528 | 143.22918 | 33907 ft | 412 kts | 290° |
| 2026-04-28 06:59 | -15.58885 | 143.17649 | 33907 ft | 412 kts | 290° |
| 2026-04-28 06:59 | -15.56250 | 143.12374 | 33903 ft | 412 kts | 290° |
| 2026-04-28 07:00 | -15.53598 | 143.07098 | 33904 ft | 413 kts | 290° |
| 2026-04-28 07:00 | -15.50944 | 143.01813 | 33909 ft | 413 kts | 290° |
| 2026-04-28 07:01 | -15.48309 | 142.96570 | 33908 ft | 413 kts | 290° |
| 2026-04-28 07:01 | -15.45662 | 142.91301 | 33902 ft | 412 kts | 290° |
| 2026-04-28 07:02 | -15.43004 | 142.86024 | 33901 ft | 413 kts | 290° |
| 2026-04-28 07:02 | -15.40349 | 142.80752 | 33906 ft | 413 kts | 290° |
| 2026-04-28 07:03 | -15.37697 | 142.75485 | 33902 ft | 413 kts | 290° |
| 2026-04-28 07:03 | -15.35036 | 142.70201 | 33903 ft | 413 kts | 290° |
| 2026-04-28 07:04 | -15.32379 | 142.64925 | 33902 ft | 413 kts | 291° |
| 2026-04-28 07:04 | -15.29716 | 142.59653 | 33901 ft | 413 kts | 291° |
| 2026-04-28 07:05 | -15.27053 | 142.54387 | 33898 ft | 413 kts | 291° |
| 2026-04-28 07:05 | -15.24391 | 142.49124 | 33901 ft | 413 kts | 291° |
| 2026-04-28 07:06 | -15.21740 | 142.43897 | 33905 ft | 413 kts | 291° |
| 2026-04-28 07:06 | -15.19081 | 142.38638 | 33904 ft | 412 kts | 291° |
| 2026-04-28 07:07 | -15.16418 | 142.33377 | 33901 ft | 412 kts | 291° |
| 2026-04-28 07:07 | -15.13752 | 142.28121 | 33902 ft | 412 kts | 291° |
| 2026-04-28 07:08 | -15.11087 | 142.22871 | 33899 ft | 412 kts | 291° |
| 2026-04-28 07:08 | -15.08427 | 142.17622 | 33900 ft | 412 kts | 292° |
| 2026-04-28 07:09 | -15.05762 | 142.12381 | 33898 ft | 411 kts | 292° |
| 2026-04-28 07:09 | -15.03095 | 142.07145 | 33899 ft | 411 kts | 292° |
| 2026-04-28 07:10 | -15.00429 | 142.01910 | 33898 ft | 411 kts | 292° |
| 2026-04-28 07:10 | -14.97769 | 141.96682 | 33896 ft | 411 kts | 292° |
| 2026-04-28 07:11 | -14.95112 | 141.91457 | 33901 ft | 410 kts | 292° |
| 2026-04-28 07:11 | -14.92455 | 141.86236 | 33901 ft | 410 kts | 292° |
| 2026-04-28 07:12 | -14.89805 | 141.81056 | 33897 ft | 410 kts | 292° |
| 2026-04-28 07:12 | -14.87143 | 141.75845 | 33899 ft | 410 kts | 292° |
| 2026-04-28 07:13 | -14.84480 | 141.70635 | 33898 ft | 410 kts | 292° |
| 2026-04-28 07:13 | -14.81822 | 141.65427 | 33895 ft | 410 kts | 292° |
| 2026-04-28 07:14 | -14.79156 | 141.60225 | 33900 ft | 410 kts | 292° |
| 2026-04-28 07:14 | -14.76488 | 141.55021 | 33899 ft | 409 kts | 292° |
| 2026-04-28 07:15 | -14.73825 | 141.49822 | 33899 ft | 409 kts | 292° |
| 2026-04-28 07:15 | -14.71157 | 141.44628 | 33898 ft | 409 kts | 293° |
| 2026-04-28 07:16 | -14.68490 | 141.39430 | 33897 ft | 410 kts | 293° |
| 2026-04-28 07:16 | -14.65826 | 141.34229 | 33897 ft | 410 kts | 293° |
| 2026-04-28 07:17 | -14.63158 | 141.29029 | 33900 ft | 410 kts | 293° |
| 2026-04-28 07:17 | -14.60481 | 141.23838 | 33901 ft | 410 kts | 293° |
| 2026-04-28 07:18 | -14.57803 | 141.18639 | 33900 ft | 410 kts | 293° |
| 2026-04-28 07:18 | -14.55133 | 141.13442 | 33903 ft | 410 kts | 293° |
| 2026-04-28 07:19 | -14.52470 | 141.08265 | 33904 ft | 410 kts | 293° |
| 2026-04-28 07:19 | -14.49766 | 141.03030 | 33903 ft | 411 kts | 293° |
| 2026-04-28 07:20 | -14.47082 | 140.97826 | 33903 ft | 411 kts | 293° |
| 2026-04-28 07:20 | -14.44413 | 140.92654 | 33906 ft | 411 kts | 293° |
| 2026-04-28 07:21 | -14.41722 | 140.87442 | 33910 ft | 412 kts | 293° |
| 2026-04-28 07:21 | -14.39026 | 140.82223 | 33911 ft | 412 kts | 293° |
| 2026-04-28 07:22 | -14.34968 | 140.74393 | 33925 ft | 413 kts | 294° |
| 2026-04-28 07:22 | -14.32265 | 140.69164 | 33911 ft | 413 kts | 294° |
| 2026-04-28 07:23 | -14.29559 | 140.63938 | 33917 ft | 413 kts | 294° |
| 2026-04-28 07:23 | -14.26855 | 140.58717 | 33916 ft | 413 kts | 294° |
| 2026-04-28 07:24 | -14.24160 | 140.53536 | 33919 ft | 413 kts | 294° |
| 2026-04-28 07:24 | -14.21431 | 140.48285 | 33926 ft | 413 kts | 294° |
| 2026-04-28 07:25 | -14.18725 | 140.43073 | 33913 ft | 412 kts | 294° |
| 2026-04-28 07:25 | -14.16033 | 140.37883 | 33920 ft | 412 kts | 294° |
| 2026-04-28 07:26 | -14.13325 | 140.32673 | 33912 ft | 412 kts | 294° |
| 2026-04-28 07:26 | -14.10614 | 140.27468 | 33915 ft | 412 kts | 294° |
| 2026-04-28 07:27 | -14.07903 | 140.22272 | 33911 ft | 412 kts | 294° |
| 2026-04-28 07:27 | -14.05194 | 140.17072 | 33914 ft | 412 kts | 294° |
| 2026-04-28 07:28 | -14.02484 | 140.11866 | 33908 ft | 412 kts | 294° |
| 2026-04-28 07:28 | -13.99774 | 140.06663 | 33911 ft | 412 kts | 294° |
| 2026-04-28 07:29 | -13.97051 | 140.01459 | 33907 ft | 413 kts | 294° |
| 2026-04-28 07:29 | -13.94330 | 139.96257 | 33909 ft | 413 kts | 294° |
| 2026-04-28 07:30 | -13.91610 | 139.91052 | 33905 ft | 413 kts | 294° |
| 2026-04-28 07:30 | -13.88888 | 139.85846 | 33901 ft | 413 kts | 294° |
| 2026-04-28 07:31 | -13.86190 | 139.80674 | 33906 ft | 413 kts | 294° |
| 2026-04-28 07:31 | -13.83457 | 139.75465 | 33903 ft | 414 kts | 294° |
| 2026-04-28 07:32 | -13.80718 | 139.70246 | 33906 ft | 414 kts | 294° |
| 2026-04-28 07:32 | -13.77983 | 139.65028 | 33906 ft | 415 kts | 294° |
| 2026-04-28 07:33 | -13.75706 | 139.60681 | 33914 ft | 415 kts | 294° |
| 2026-04-28 07:33 | -13.72958 | 139.55456 | 33906 ft | 415 kts | 295° |
| 2026-04-28 07:34 | -13.70207 | 139.50233 | 33914 ft | 415 kts | 295° |
| 2026-04-28 07:34 | -13.67461 | 139.45005 | 33905 ft | 416 kts | 295° |
| 2026-04-28 07:35 | -13.64722 | 139.39800 | 33908 ft | 416 kts | 295° |
| 2026-04-28 07:35 | -13.61971 | 139.34577 | 33910 ft | 416 kts | 295° |
| 2026-04-28 07:36 | -13.59207 | 139.29338 | 33907 ft | 416 kts | 295° |
| 2026-04-28 07:36 | -13.56457 | 139.24105 | 33911 ft | 417 kts | 295° |
| 2026-04-28 07:37 | -13.53694 | 139.18859 | 33905 ft | 417 kts | 295° |
| 2026-04-28 07:37 | -13.50932 | 139.13629 | 33906 ft | 417 kts | 295° |
| 2026-04-28 07:38 | -13.48163 | 139.08389 | 33905 ft | 417 kts | 295° |
| 2026-04-28 07:38 | -13.45325 | 139.03164 | 33908 ft | 418 kts | 297° |
| 2026-04-28 07:39 | -13.42314 | 138.98037 | 33908 ft | 419 kts | 298° |
| 2026-04-28 07:39 | -13.39265 | 138.92926 | 33907 ft | 419 kts | 298° |
| 2026-04-28 07:40 | -13.36269 | 138.87837 | 33908 ft | 419 kts | 298° |
| 2026-04-28 07:40 | -13.33273 | 138.82698 | 33913 ft | 419 kts | 298° |
| 2026-04-28 07:41 | -13.30274 | 138.77558 | 33908 ft | 420 kts | 298° |
| 2026-04-28 07:41 | -13.27263 | 138.72420 | 33910 ft | 420 kts | 298° |
| 2026-04-28 07:42 | -13.24251 | 138.67282 | 33904 ft | 420 kts | 298° |
| 2026-04-28 07:42 | -13.21239 | 138.62138 | 33911 ft | 420 kts | 298° |
| 2026-04-28 07:43 | -13.18215 | 138.56992 | 33911 ft | 421 kts | 298° |
| 2026-04-28 07:43 | -13.15198 | 138.51850 | 33908 ft | 421 kts | 298° |
| 2026-04-28 07:44 | -13.12176 | 138.46699 | 33908 ft | 421 kts | 299° |
| 2026-04-28 07:44 | -13.09151 | 138.41544 | 33905 ft | 422 kts | 299° |
| 2026-04-28 07:45 | -13.06123 | 138.36394 | 33907 ft | 422 kts | 299° |
| 2026-04-28 07:45 | -13.03092 | 138.31238 | 33910 ft | 422 kts | 299° |
| 2026-04-28 07:46 | -13.00061 | 138.26079 | 33911 ft | 422 kts | 299° |
| 2026-04-28 07:46 | -12.97015 | 138.20910 | 33919 ft | 432 kts | 299° |
| 2026-04-28 07:47 | -12.93885 | 138.15598 | 33921 ft | 437 kts | 299° |
| 2026-04-28 07:47 | -12.90737 | 138.10264 | 33843 ft | 437 kts | 299° |
| 2026-04-28 07:48 | -12.89160 | 138.07597 | 32920 ft | 438 kts | 299° |
| 2026-04-28 07:48 | -12.87575 | 138.04916 | 31951 ft | 438 kts | 299° |
| 2026-04-28 07:48 | -12.86006 | 138.02261 | 31076 ft | 436 kts | 298° |
| 2026-04-28 07:48 | -12.84442 | 137.99614 | 30225 ft | 433 kts | 298° |
| 2026-04-28 07:49 | -12.82887 | 137.96984 | 29307 ft | 430 kts | 298° |
| 2026-04-28 07:49 | -12.81346 | 137.94377 | 28425 ft | 425 kts | 298° |
| 2026-04-28 07:49 | -12.79833 | 137.91817 | 27915 ft | 413 kts | 298° |
| 2026-04-28 07:49 | -12.78368 | 137.89345 | 27507 ft | 400 kts | 298° |
| 2026-04-28 07:50 | -12.76966 | 137.86978 | 27116 ft | 388 kts | 298° |
| 2026-04-28 07:50 | -12.75587 | 137.84648 | 26742 ft | 377 kts | 298° |
| 2026-04-28 07:50 | -12.74251 | 137.82385 | 26367 ft | 366 kts | 298° |
| 2026-04-28 07:50 | -12.72952 | 137.80190 | 26006 ft | 356 kts | 298° |
| 2026-04-28 07:51 | -12.71669 | 137.78025 | 25651 ft | 355 kts | 298° |
| 2026-04-28 07:51 | -12.70390 | 137.75864 | 25274 ft | 353 kts | 298° |
| 2026-04-28 07:51 | -12.69120 | 137.73716 | 24903 ft | 351 kts | 298° |
| 2026-04-28 07:51 | -12.67854 | 137.71575 | 24531 ft | 350 kts | 298° |
| 2026-04-28 07:52 | -12.66600 | 137.69452 | 24146 ft | 348 kts | 298° |
| 2026-04-28 07:52 | -12.65350 | 137.67336 | 23760 ft | 346 kts | 298° |
| 2026-04-28 07:52 | -12.64107 | 137.65234 | 23348 ft | 344 kts | 298° |
| 2026-04-28 07:52 | -12.62867 | 137.63146 | 22923 ft | 342 kts | 298° |
| 2026-04-28 07:53 | -12.61629 | 137.61069 | 22535 ft | 341 kts | 298° |
| 2026-04-28 07:53 | -12.60401 | 137.59004 | 22138 ft | 339 kts | 298° |
| 2026-04-28 07:53 | -12.59180 | 137.56947 | 21746 ft | 337 kts | 298° |
| 2026-04-28 07:53 | -12.57963 | 137.54894 | 21348 ft | 336 kts | 298° |
| 2026-04-28 07:54 | -12.56756 | 137.52854 | 20953 ft | 334 kts | 298° |
| 2026-04-28 07:54 | -12.55554 | 137.50820 | 20563 ft | 333 kts | 298° |
| 2026-04-28 07:54 | -12.54357 | 137.48798 | 20170 ft | 331 kts | 298° |
| 2026-04-28 07:54 | -12.53163 | 137.46788 | 19778 ft | 330 kts | 298° |
| 2026-04-28 07:55 | -12.51973 | 137.44789 | 19384 ft | 328 kts | 299° |
| 2026-04-28 07:55 | -12.50788 | 137.42799 | 18994 ft | 327 kts | 299° |
| 2026-04-28 07:55 | -12.49610 | 137.40818 | 18605 ft | 325 kts | 299° |
| 2026-04-28 07:55 | -12.48454 | 137.38871 | 18223 ft | 324 kts | 299° |
| 2026-04-28 07:56 | -12.47289 | 137.36907 | 17794 ft | 322 kts | 298° |
| 2026-04-28 07:56 | -12.46127 | 137.34950 | 17404 ft | 320 kts | 298° |
| 2026-04-28 07:56 | -12.44976 | 137.33008 | 17019 ft | 318 kts | 299° |
| 2026-04-28 07:56 | -12.43828 | 137.31079 | 16639 ft | 317 kts | 299° |
| 2026-04-28 07:57 | -12.42685 | 137.29161 | 16263 ft | 315 kts | 299° |
| 2026-04-28 07:57 | -12.41549 | 137.27255 | 15883 ft | 313 kts | 299° |
| 2026-04-28 07:57 | -12.40421 | 137.25361 | 15513 ft | 311 kts | 299° |
| 2026-04-28 07:57 | -12.39299 | 137.23478 | 15139 ft | 309 kts | 299° |
| 2026-04-28 07:58 | -12.38182 | 137.21606 | 14767 ft | 307 kts | 299° |
| 2026-04-28 07:58 | -12.37073 | 137.19750 | 14401 ft | 305 kts | 299° |
| 2026-04-28 07:58 | -12.35970 | 137.17901 | 14036 ft | 303 kts | 299° |
| 2026-04-28 07:58 | -12.34878 | 137.16065 | 13671 ft | 302 kts | 299° |
| 2026-04-28 07:59 | -12.33784 | 137.14227 | 13269 ft | 303 kts | 299° |
| 2026-04-28 07:59 | -12.32690 | 137.12390 | 12908 ft | 302 kts | 299° |
| 2026-04-28 07:59 | -12.31598 | 137.10558 | 12549 ft | 301 kts | 300° |
| 2026-04-28 07:59 | -12.30510 | 137.08732 | 12186 ft | 300 kts | 300° |
| 2026-04-28 08:00 | -12.29422 | 137.06910 | 11822 ft | 300 kts | 300° |
| 2026-04-28 08:00 | -12.28337 | 137.05092 | 11465 ft | 299 kts | 300° |
| 2026-04-28 08:00 | -12.27256 | 137.03277 | 11101 ft | 299 kts | 300° |
| 2026-04-28 08:00 | -12.26177 | 137.01464 | 10741 ft | 298 kts | 300° |
| 2026-04-28 08:01 | -12.25100 | 136.99660 | 10382 ft | 298 kts | 300° |
| 2026-04-28 08:01 | -12.24020 | 136.97851 | 10009 ft | 297 kts | 300° |
| 2026-04-28 08:01 | -12.22948 | 136.96052 | 9641 ft | 297 kts | 301° |
| 2026-04-28 08:01 | -12.21875 | 136.94255 | 9258 ft | 295 kts | 301° |
| 2026-04-28 08:02 | -12.20811 | 136.92474 | 8969 ft | 291 kts | 301° |
| 2026-04-28 08:02 | -12.19758 | 136.90713 | 8624 ft | 289 kts | 301° |
| 2026-04-28 08:02 | -12.18710 | 136.88960 | 8279 ft | 289 kts | 301° |
| 2026-04-28 08:02 | -12.17664 | 136.87212 | 7924 ft | 288 kts | 301° |
| 2026-04-28 08:03 | -12.16633 | 136.85487 | 7574 ft | 288 kts | 301° |
| 2026-04-28 08:03 | -12.15590 | 136.83740 | 7218 ft | 288 kts | 301° |
| 2026-04-28 08:03 | -12.14545 | 136.81993 | 6858 ft | 288 kts | 301° |
| 2026-04-28 08:03 | -12.13510 | 136.80265 | 6693 ft | 281 kts | 301° |
| 2026-04-28 08:04 | -12.12506 | 136.78592 | 6571 ft | 272 kts | 301° |
| 2026-04-28 08:04 | -12.11534 | 136.76972 | 6457 ft | 263 kts | 301° |
| 2026-04-28 08:04 | -12.10595 | 136.75403 | 6340 ft | 254 kts | 300° |
| 2026-04-28 08:04 | -12.09736 | 136.73862 | 6200 ft | 244 kts | 290° |
| 2026-04-28 08:05 | -12.09559 | 136.72210 | 6078 ft | 229 kts | 256° |
| 2026-04-28 08:05 | -12.10188 | 136.70803 | 5945 ft | 212 kts | 226° |
| 2026-04-28 08:05 | -12.11312 | 136.69937 | 5774 ft | 197 kts | 199° |
| 2026-04-28 08:05 | -12.12584 | 136.69465 | 5422 ft | 192 kts | 195° |
| 2026-04-28 08:06 | -12.13862 | 136.69006 | 4918 ft | 197 kts | 195° |
| 2026-04-28 08:06 | -12.15185 | 136.68661 | 4399 ft | 194 kts | 175° |
| 2026-04-28 08:06 | -12.16436 | 136.69038 | 3891 ft | 187 kts | 144° |
| 2026-04-28 08:06 | -12.17335 | 136.69982 | 3424 ft | 186 kts | 128° |
| 2026-04-28 08:07 | -12.18155 | 136.70992 | 2946 ft | 187 kts | 128° |
| 2026-04-28 08:07 | -12.18982 | 136.72007 | 2518 ft | 184 kts | 129° |
| 2026-04-28 08:07 | -12.19786 | 136.72990 | 2223 ft | 175 kts | 129° |
| 2026-04-28 08:07 | -12.20537 | 136.73908 | 1974 ft | 162 kts | 129° |
| 2026-04-28 08:08 | -12.21241 | 136.74771 | 1761 ft | 155 kts | 129° |
| 2026-04-28 08:08 | -12.21923 | 136.75607 | 1557 ft | 150 kts | 129° |
| 2026-04-28 08:08 | -12.22556 | 136.76387 | 1373 ft | 136 kts | 129° |
| 2026-04-28 08:08 | -12.23146 | 136.77111 | 1187 ft | 130 kts | 128° |
| 2026-04-28 08:09 | -12.23717 | 136.77813 | 1023 ft | 128 kts | 128° |
| 2026-04-28 08:09 | -12.24286 | 136.78511 | 848 ft | 128 kts | 129° |
| 2026-04-28 08:09 | -12.24855 | 136.79209 | 681 ft | 127 kts | 129° |
| 2026-04-28 08:09 | -12.25424 | 136.79908 | 506 ft | 129 kts | 129° |
| 2026-04-28 08:10 | -12.25997 | 136.80613 | 344 ft | 129 kts | 128° |
| 2026-04-28 08:10 | -12.26561 | 136.81318 | 212 ft | 119 kts | 128° |
| 2026-04-28 08:10 | -12.26961 | 136.81797 | 213 ft | 47 kts | 130° |
| 2026-04-28 08:10 | -12.27055 | 136.81913 | 202 ft | 17 kts | 130° |
| 2026-04-28 08:11 | -12.27112 | 136.82005 | 200 ft | 12 kts | 86° |
| 2026-04-28 08:11 | -12.27061 | 136.82062 | 204 ft | 8 kts | 40° |
| 2026-04-28 08:11 | -12.27020 | 136.82104 | 203 ft | 8 kts | 66° |
| 2026-04-28 08:11 | -12.27026 | 136.82141 | 201 ft | 5 kts | 104° |
| 2026-04-28 08:12 | -12.27029 | 136.82160 | 200 ft | 0 kts | 112° |